Time;durP1;ratioP1;P1;durP2;ratioP2;P2;SDS_P1;SDS_P2;PMS_P1;PMS_P2;Temp;Humidity;BMP_temperature;BMP_pressure;BME280_temperature;BME280_humidity;BME280_pressure;Samples;Min_cycle;Max_cycle;Signal;HPM_P1;HPM_P2
2021/05/24 00:01:06;;;;;;;2.10;1.90;;;10.10;99.90;;;;;;4886170;29;20433;-78
2021/05/24 00:03:31;;;;;;;1.70;1.57;;;10.00;99.90;;;;;;4876289;29;20405;-75
2021/05/24 00:05:57;;;;;;;1.65;1.52;;;10.00;99.90;;;;;;4878810;29;20409;-74
2021/05/24 00:08:23;;;;;;;2.10;2.00;;;9.90;99.90;;;;;;4853766;29;20400;-77
2021/05/24 00:10:48;;;;;;;1.83;1.73;;;9.90;99.90;;;;;;4860588;29;20791;-76
2021/05/24 00:13:15;;;;;;;1.65;1.55;;;9.80;99.90;;;;;;4857146;29;20432;-75
2021/05/24 00:15:47;;;;;;;1.48;1.38;;;9.80;99.90;;;;;;4906035;29;20429;-78
2021/05/24 00:18:14;;;;;;;1.17;1.15;;;9.70;99.90;;;;;;4841630;29;20907;-75
2021/05/24 00:20:45;;;;;;;1.30;1.23;;;9.70;99.90;;;;;;4895590;29;20465;-76
2021/05/24 00:23:11;;;;;;;1.65;1.02;;;9.60;99.90;;;;;;4876621;29;20444;-76
2021/05/24 00:25:37;;;;;;;1.07;1.07;;;9.70;99.90;;;;;;4889073;29;20442;-74
2021/05/24 00:28:03;;;;;;;1.92;1.20;;;9.50;99.90;;;;;;4891480;29;20414;-75
2021/05/24 00:30:32;;;;;;;0.95;0.95;;;9.50;99.90;;;;;;4870751;29;20498;-78
2021/05/24 00:33:02;;;;;;;1.25;1.15;;;9.50;99.90;;;;;;4891350;29;20399;-76
2021/05/24 00:35:28;;;;;;;1.08;1.08;;;9.50;99.90;;;;;;4879419;29;20410;-76
2021/05/24 00:37:53;;;;;;;1.00;1.00;;;9.40;99.90;;;;;;4889676;29;20776;-77
2021/05/24 00:40:19;;;;;;;1.47;1.37;;;9.40;99.90;;;;;;4869069;29;20417;-75
2021/05/24 00:42:45;;;;;;;0.90;0.90;;;9.30;99.90;;;;;;4890606;29;20411;-78
2021/05/24 00:45:11;;;;;;;1.10;1.07;;;9.30;99.90;;;;;;4889566;29;20405;-77
2021/05/24 00:47:36;;;;;;;1.30;1.20;;;9.20;99.90;;;;;;4892528;29;20418;-75
2021/05/24 00:50:03;;;;;;;1.27;1.27;;;9.20;99.90;;;;;;4862457;29;20495;-76
2021/05/24 00:52:29;;;;;;;1.65;1.15;;;9.10;99.90;;;;;;4848732;29;20405;-78
2021/05/24 00:54:55;;;;;;;2.87;1.30;;;9.10;99.90;;;;;;4877314;29;20391;-76
2021/05/24 00:57:20;;;;;;;1.00;1.00;;;9.00;99.90;;;;;;4861532;29;20403;-75
2021/05/24 00:59:46;;;;;;;1.57;0.97;;;9.00;99.90;;;;;;4872695;29;20964;-76
2021/05/24 01:02:12;;;;;;;1.00;1.00;;;9.00;99.90;;;;;;4912829;29;20491;-77
2021/05/24 01:04:37;;;;;;;1.15;1.15;;;9.00;99.90;;;;;;4879264;29;20415;-79
2021/05/24 01:07:03;;;;;;;1.10;1.10;;;8.90;99.90;;;;;;4863838;29;20765;-80
2021/05/24 01:09:29;;;;;;;1.10;1.10;;;9.00;99.90;;;;;;4873657;29;20810;-81
2021/05/24 01:11:55;;;;;;;1.30;1.20;;;9.00;99.90;;;;;;4876257;29;20403;-74
2021/05/24 01:14:20;;;;;;;0.90;0.90;;;8.90;99.90;;;;;;4894175;29;20401;-79
2021/05/24 01:16:50;;;;;;;1.02;1.02;;;9.00;99.90;;;;;;4882177;29;20429;-77
2021/05/24 01:19:16;;;;;;;0.93;0.93;;;8.90;99.90;;;;;;4866595;29;20766;-79
2021/05/24 01:21:42;;;;;;;1.20;1.10;;;8.90;99.90;;;;;;4891187;29;21151;-81
2021/05/24 01:24:08;;;;;;;1.20;1.10;;;8.90;99.90;;;;;;4899016;29;20445;-76
2021/05/24 01:26:33;;;;;;;1.10;1.10;;;8.90;99.90;;;;;;4889497;29;20404;-76
2021/05/24 01:28:59;;;;;;;1.20;1.20;;;8.80;99.90;;;;;;4878585;29;20552;-74
2021/05/24 01:31:25;;;;;;;0.90;0.90;;;8.80;99.90;;;;;;4889880;29;20472;-77
2021/05/24 01:33:51;;;;;;;1.00;1.00;;;8.80;99.90;;;;;;4864097;29;20405;-76
2021/05/24 01:36:16;;;;;;;1.13;1.10;;;8.70;99.90;;;;;;4891043;29;20494;-79
2021/05/24 01:38:42;;;;;;;1.30;1.20;;;8.70;99.90;;;;;;4884000;29;20428;-77
2021/05/24 01:41:10;;;;;;;1.30;1.20;;;8.70;99.90;;;;;;4862604;29;20472;-76
2021/05/24 01:43:36;;;;;;;1.00;1.00;;;8.70;99.90;;;;;;4877656;29;20407;-79
2021/05/24 01:46:02;;;;;;;1.33;1.23;;;8.60;99.90;;;;;;4908736;29;20919;-76
2021/05/24 01:48:28;;;;;;;1.52;1.40;;;8.60;99.90;;;;;;4857185;29;20413;-76
2021/05/24 01:50:54;;;;;;;1.40;1.30;;;8.50;99.90;;;;;;4855366;29;20754;-76
2021/05/24 01:53:20;;;;;;;4.70;1.40;;;8.50;99.90;;;;;;4856833;29;20420;-75
2021/05/24 01:55:48;;;;;;;1.65;1.45;;;8.50;99.90;;;;;;4905645;29;20421;-77
2021/05/24 01:58:13;;;;;;;1.27;1.17;;;8.50;99.90;;;;;;4855485;29;20446;-77
2021/05/24 02:00:39;;;;;;;1.20;1.20;;;8.50;99.90;;;;;;4870442;29;20497;-78
2021/05/24 02:03:07;;;;;;;1.48;1.38;;;8.50;99.90;;;;;;4890359;29;20832;-78
2021/05/24 02:05:32;;;;;;;1.50;1.40;;;8.50;99.90;;;;;;4873961;29;20494;-75
2021/05/24 02:07:59;;;;;;;1.40;1.30;;;8.50;99.90;;;;;;4891283;29;20399;-80
2021/05/24 02:10:30;;;;;;;5.00;1.38;;;8.40;99.90;;;;;;4854913;29;20400;-78
2021/05/24 02:12:56;;;;;;;2.40;1.67;;;8.30;99.90;;;;;;4839661;29;21208;-77
2021/05/24 02:15:27;;;;;;;1.30;1.20;;;8.30;99.90;;;;;;4886948;29;20424;-76
2021/05/24 02:17:52;;;;;;;1.50;1.40;;;8.30;99.90;;;;;;4861358;29;20438;-75
2021/05/24 02:20:23;;;;;;;1.30;1.20;;;8.30;99.90;;;;;;4861461;29;21035;-76
2021/05/24 02:22:48;;;;;;;1.60;1.38;;;8.30;99.90;;;;;;4875335;29;20442;-78
2021/05/24 02:25:14;;;;;;;1.38;1.27;;;8.30;99.90;;;;;;4855366;29;20423;-75
2021/05/24 02:27:40;;;;;;;1.48;1.38;;;8.20;99.90;;;;;;4874791;29;20486;-76
2021/05/24 02:30:07;;;;;;;1.50;1.40;;;8.10;99.90;;;;;;4873639;29;20413;-80
2021/05/24 02:32:32;;;;;;;1.50;1.25;;;8.10;99.90;;;;;;4922857;29;20463;-77
2021/05/24 02:34:58;;;;;;;2.53;1.40;;;8.10;99.90;;;;;;4877668;29;20480;-78
2021/05/24 02:37:24;;;;;;;1.40;1.30;;;8.10;99.90;;;;;;4872558;29;20417;-76
2021/05/24 02:39:50;;;;;;;1.60;1.50;;;8.10;99.90;;;;;;4887953;29;20942;-77
2021/05/24 02:42:16;;;;;;;3.00;1.40;;;8.10;99.90;;;;;;4847505;29;20417;-80
2021/05/24 02:44:42;;;;;;;2.65;1.20;;;8.10;99.90;;;;;;4890833;29;20529;-83
2021/05/24 02:47:08;;;;;;;1.58;1.48;;;8.10;99.90;;;;;;4907231;29;20746;-82
2021/05/24 02:49:33;;;;;;;1.13;1.10;;;8.00;99.90;;;;;;4874683;29;20432;-80
2021/05/24 02:51:59;;;;;;;1.65;1.52;;;8.00;99.90;;;;;;4876609;29;20374;-79
2021/05/24 02:54:24;;;;;;;2.80;1.43;;;8.00;99.90;;;;;;4873214;29;20557;-81
2021/05/24 02:56:50;;;;;;;1.50;1.40;;;7.90;99.90;;;;;;4847040;29;20392;-75
2021/05/24 02:59:16;;;;;;;1.50;1.40;;;7.90;99.90;;;;;;4874629;29;20463;-80
2021/05/24 03:01:42;;;;;;;1.88;1.50;;;7.80;99.90;;;;;;4888765;29;20407;-79
2021/05/24 03:04:10;;;;;;;1.50;1.40;;;7.80;99.90;;;;;;4876059;29;20401;-77
2021/05/24 03:06:35;;;;;;;1.52;1.42;;;7.80;99.90;;;;;;4908769;29;20413;-74
2021/05/24 03:09:01;;;;;;;1.50;1.40;;;7.80;99.90;;;;;;4891927;29;20414;-76
2021/05/24 03:11:27;;;;;;;1.40;1.30;;;7.80;99.90;;;;;;4907323;29;20412;-82
2021/05/24 03:13:52;;;;;;;1.47;1.37;;;7.90;99.90;;;;;;4871629;29;20915;-84
2021/05/24 03:16:18;;;;;;;1.65;1.55;;;7.80;99.90;;;;;;4865242;29;20467;-76
2021/05/24 03:18:44;;;;;;;1.77;1.40;;;7.90;99.90;;;;;;4856224;29;20393;-78
2021/05/24 03:21:11;;;;;;;1.60;1.50;;;7.80;99.90;;;;;;4893864;29;21281;-76
2021/05/24 03:23:37;;;;;;;1.53;1.43;;;7.80;99.90;;;;;;4893024;29;20491;-79
2021/05/24 03:26:02;;;;;;;1.95;1.60;;;7.80;99.90;;;;;;4890708;29;20414;-75
2021/05/24 03:28:28;;;;;;;1.80;1.70;;;7.90;99.90;;;;;;4870821;29;20413;-76
2021/05/24 03:30:54;;;;;;;1.47;1.37;;;7.90;99.90;;;;;;4859632;29;20415;-76
2021/05/24 03:33:19;;;;;;;2.38;1.38;;;7.90;99.90;;;;;;4877737;29;20420;-90
2021/05/24 03:35:45;;;;;;;2.10;1.90;;;8.00;99.90;;;;;;4862991;29;20397;-84
2021/05/24 03:38:11;;;;;;;1.50;1.40;;;7.90;99.90;;;;;;4862664;29;20691;-82
2021/05/24 03:40:36;;;;;;;1.60;1.50;;;7.90;99.90;;;;;;4848383;29;20428;-84
2021/05/24 03:43:02;;;;;;;1.63;1.52;;;8.00;99.90;;;;;;4881075;29;20865;-85
2021/05/24 03:45:31;;;;;;;1.60;1.50;;;8.20;99.90;;;;;;4875143;29;20402;-84
2021/05/24 03:47:57;;;;;;;1.73;1.63;;;8.10;99.90;;;;;;4891701;29;20429;-78
2021/05/24 03:50:23;;;;;;;1.57;1.47;;;8.20;99.90;;;;;;4846684;29;20783;-77
2021/05/24 03:52:49;;;;;;;1.70;1.60;;;8.30;99.90;;;;;;4855288;29;20424;-79
2021/05/24 03:55:17;;;;;;;1.80;1.70;;;8.40;99.90;;;;;;4862882;29;20796;-81
2021/05/24 03:57:42;;;;;;;1.45;1.35;;;8.40;99.90;;;;;;4892193;29;20430;-86
2021/05/24 04:00:09;;;;;;;1.58;1.48;;;8.40;99.90;;;;;;4876629;29;20781;-83
2021/05/24 04:02:41;;;;;;;1.92;1.50;;;8.50;99.90;;;;;;4875035;29;20463;-78
2021/05/24 04:05:18;;;;;;;1.65;1.55;;;8.60;99.90;;;;;;4900113;29;20403;-77
2021/05/24 04:07:48;;;;;;;1.77;1.67;;;8.60;99.90;;;;;;4903902;29;20415;-80
2021/05/24 04:10:15;;;;;;;1.40;1.30;;;8.70;99.90;;;;;;4872687;29;20405;-77
2021/05/24 04:12:40;;;;;;;1.58;1.48;;;8.80;99.90;;;;;;4886915;29;20409;-79
2021/05/24 04:15:06;;;;;;;1.27;1.20;;;8.80;99.90;;;;;;4878471;29;20422;-75
2021/05/24 04:17:36;;;;;;;1.80;1.60;;;8.90;99.90;;;;;;4909295;29;21152;-78
2021/05/24 04:20:02;;;;;;;1.45;1.35;;;9.00;99.90;;;;;;4867582;29;21027;-82
2021/05/24 04:22:28;;;;;;;1.60;1.50;;;9.20;99.90;;;;;;4879721;29;20417;-79
2021/05/24 04:24:53;;;;;;;1.40;1.30;;;9.20;99.90;;;;;;4890863;29;20417;-81
2021/05/24 04:27:19;;;;;;;1.60;1.50;;;9.30;99.90;;;;;;4865272;29;20840;-80
2021/05/24 04:29:46;;;;;;;1.63;1.53;;;9.40;99.90;;;;;;4865286;29;20427;-79
2021/05/24 04:32:12;;;;;;;2.10;1.60;;;9.50;99.90;;;;;;4894445;29;20927;-81
2021/05/24 04:34:37;;;;;;;1.52;1.42;;;9.60;99.90;;;;;;4845413;29;21421;-78
2021/05/24 04:37:03;;;;;;;1.50;1.40;;;9.70;99.90;;;;;;4863659;29;20413;-79
2021/05/24 04:39:29;;;;;;;1.90;1.70;;;9.80;99.90;;;;;;4865613;29;20421;-78
2021/05/24 04:41:54;;;;;;;1.43;1.33;;;9.90;99.90;;;;;;4876688;29;20416;-77
2021/05/24 04:44:20;;;;;;;1.48;1.38;;;10.10;99.90;;;;;;4860687;29;20442;-77
2021/05/24 04:46:46;;;;;;;1.50;1.40;;;10.20;99.90;;;;;;4889872;29;20428;-78
2021/05/24 04:49:12;;;;;;;1.40;1.30;;;10.20;99.90;;;;;;4879523;29;20405;-77
2021/05/24 04:51:38;;;;;;;1.45;1.35;;;10.30;99.90;;;;;;4890656;29;20492;-79
2021/05/24 04:54:05;;;;;;;1.45;1.35;;;10.50;99.90;;;;;;4879780;29;20931;-78
2021/05/24 04:56:31;;;;;;;1.48;1.38;;;10.50;99.90;;;;;;4886035;29;20996;-80
2021/05/24 04:58:57;;;;;;;1.17;1.17;;;10.60;99.90;;;;;;4868389;29;20520;-78
2021/05/24 05:01:23;;;;;;;2.20;1.60;;;10.70;99.90;;;;;;4890411;29;20419;-80
2021/05/24 05:03:48;;;;;;;1.43;1.33;;;10.70;99.90;;;;;;4862059;29;21144;-79
2021/05/24 05:06:14;;;;;;;1.48;1.38;;;10.80;99.90;;;;;;4858368;29;20415;-82
2021/05/24 05:08:40;;;;;;;1.50;1.40;;;10.90;99.90;;;;;;4889037;29;20412;-80
2021/05/24 05:11:05;;;;;;;2.80;1.50;;;11.00;99.90;;;;;;4879350;29;20412;-85
2021/05/24 05:13:31;;;;;;;1.53;1.43;;;11.20;99.90;;;;;;4864427;29;20409;-86
2021/05/24 05:15:57;;;;;;;1.55;1.45;;;11.30;99.90;;;;;;4863564;29;20478;-79
2021/05/24 05:18:22;;;;;;;1.50;1.40;;;11.40;99.90;;;;;;4876385;29;20673;-82
2021/05/24 05:20:48;;;;;;;1.20;1.10;;;11.50;99.90;;;;;;4855663;29;20413;-83
2021/05/24 05:23:14;;;;;;;1.35;1.27;;;11.60;99.90;;;;;;4884054;29;20409;-84
2021/05/24 05:25:39;;;;;;;1.70;1.60;;;11.80;99.90;;;;;;4863680;29;20401;-85
2021/05/24 05:28:07;;;;;;;1.58;1.20;;;11.90;99.90;;;;;;4864447;29;20469;-79
2021/05/24 05:30:32;;;;;;;1.30;1.20;;;12.10;99.90;;;;;;4875943;29;20766;-82
2021/05/24 05:32:58;;;;;;;1.43;1.33;;;12.20;99.90;;;;;;4861915;29;20415;-79
2021/05/24 05:35:24;;;;;;;1.10;1.10;;;12.30;99.90;;;;;;4862154;29;20419;-87
2021/05/24 05:37:51;;;;;;;1.63;1.47;;;12.40;99.90;;;;;;4892155;29;20409;-84
2021/05/24 05:40:18;;;;;;;1.15;1.15;;;12.50;99.90;;;;;;4893644;29;20515;-85
2021/05/24 05:42:47;;;;;;;1.20;1.20;;;12.60;99.90;;;;;;4861672;29;20913;-79
2021/05/24 05:45:13;;;;;;;1.10;1.10;;;12.60;99.90;;;;;;4864747;29;20421;-82
2021/05/24 05:47:39;;;;;;;1.63;1.52;;;12.70;99.90;;;;;;4848881;29;20975;-80
2021/05/24 05:50:05;;;;;;;1.20;1.20;;;12.70;99.90;;;;;;4863390;29;20418;-79
2021/05/24 05:52:31;;;;;;;1.30;1.20;;;12.80;99.90;;;;;;4891666;29;20425;-77
2021/05/24 05:54:57;;;;;;;1.50;1.30;;;12.90;99.90;;;;;;4849611;29;20413;-83
2021/05/24 05:57:22;;;;;;;1.23;1.13;;;12.90;99.90;;;;;;4894388;29;20425;-86
2021/05/24 05:59:48;;;;;;;1.30;1.20;;;12.90;99.90;;;;;;4847152;29;20928;-82
2021/05/24 06:02:14;;;;;;;1.33;1.23;;;13.00;99.90;;;;;;4865279;29;20418;-84
2021/05/24 06:04:39;;;;;;;1.30;1.20;;;13.10;99.90;;;;;;4860769;29;20407;-82
2021/05/24 06:07:05;;;;;;;2.20;1.20;;;13.40;99.90;;;;;;4847507;29;20411;-80
2021/05/24 06:09:31;;;;;;;1.30;1.20;;;13.60;99.90;;;;;;4874540;29;20426;-80
2021/05/24 06:11:56;;;;;;;1.30;1.20;;;13.80;99.90;;;;;;4845808;29;20901;-78
2021/05/24 06:14:22;;;;;;;1.95;1.17;;;13.80;99.90;;;;;;4864349;29;20401;-79
2021/05/24 06:16:48;;;;;;;1.10;1.00;;;13.90;99.90;;;;;;4849305;29;20401;-84
2021/05/24 06:19:14;;;;;;;1.45;1.10;;;14.00;99.90;;;;;;4864747;29;20468;-79
2021/05/24 06:21:41;;;;;;;1.10;1.00;;;14.20;99.90;;;;;;4864724;29;20405;-79
2021/05/24 06:24:07;;;;;;;1.08;1.08;;;14.40;99.90;;;;;;4865687;29;20420;-78
2021/05/24 06:26:33;;;;;;;1.00;1.00;;;14.60;99.90;;;;;;4849670;29;20443;-79
2021/05/24 06:28:59;;;;;;;1.25;1.15;;;14.80;99.90;;;;;;4865700;29;20479;-78
2021/05/24 06:31:24;;;;;;;1.20;1.10;;;14.90;99.90;;;;;;4864432;29;20406;-77
2021/05/24 06:33:50;;;;;;;1.30;1.20;;;15.20;99.90;;;;;;4850400;29;20401;-77
2021/05/24 06:36:16;;;;;;;1.30;1.00;;;15.30;99.90;;;;;;4866256;29;20420;-78
2021/05/24 06:38:41;;;;;;;1.00;1.00;;;15.40;99.90;;;;;;4884581;29;20460;-78
2021/05/24 06:41:07;;;;;;;1.20;1.10;;;15.60;99.90;;;;;;4865276;29;20919;-83
2021/05/24 06:43:33;;;;;;;1.20;1.10;;;15.80;99.90;;;;;;4870826;29;20416;-79
2021/05/24 06:45:58;;;;;;;1.30;1.00;;;15.90;99.90;;;;;;4910261;29;20416;-78
2021/05/24 06:48:24;;;;;;;1.40;1.17;;;15.90;99.90;;;;;;4912049;29;20897;-79
2021/05/24 06:50:53;;;;;;;0.90;0.90;;;16.00;99.90;;;;;;4881460;29;20397;-83
2021/05/24 06:53:18;;;;;;;1.20;1.10;;;16.30;99.90;;;;;;4911477;29;20811;-77
2021/05/24 06:55:44;;;;;;;0.85;0.85;;;16.40;99.90;;;;;;4912268;29;20415;-81
2021/05/24 06:58:10;;;;;;;0.80;0.80;;;16.60;99.90;;;;;;4910917;29;20416;-77
2021/05/24 07:00:36;;;;;;;0.88;0.88;;;16.90;99.90;;;;;;4910815;29;20417;-78
2021/05/24 07:03:01;;;;;;;0.80;0.80;;;17.20;99.90;;;;;;4893692;29;20494;-77
2021/05/24 07:05:27;;;;;;;0.88;0.88;;;17.30;99.90;;;;;;4887544;29;20904;-78
2021/05/24 07:07:53;;;;;;;0.80;0.80;;;17.20;99.90;;;;;;4860530;29;20407;-75
2021/05/24 07:10:19;;;;;;;1.77;1.00;;;17.10;99.90;;;;;;4912194;29;20422;-78
2021/05/24 07:12:44;;;;;;;1.00;1.00;;;17.10;99.90;;;;;;4861605;29;20482;-76
2021/05/24 07:15:10;;;;;;;1.40;0.70;;;17.20;99.90;;;;;;4896282;29;20406;-78
2021/05/24 07:17:36;;;;;;;2.00;0.90;;;17.40;99.90;;;;;;4862315;29;20476;-86
2021/05/24 07:20:03;;;;;;;0.80;0.80;;;17.80;99.90;;;;;;4893655;29;20504;-80
2021/05/24 07:22:29;;;;;;;0.80;0.80;;;17.90;99.90;;;;;;4851448;29;20389;-84
2021/05/24 07:24:56;;;;;;;0.60;0.60;;;18.00;99.90;;;;;;4857422;29;20533;-78
2021/05/24 07:27:51;;;;;;;1.20;0.70;;;18.20;99.90;;;;;;4855192;29;20417;-78
2021/05/24 07:30:21;;;;;;;0.80;0.80;;;18.50;99.90;;;;;;4861517;29;20411;-76
2021/05/24 07:32:48;;;;;;;1.02;0.70;;;18.30;99.90;;;;;;4861402;29;20406;-78
2021/05/24 07:35:15;;;;;;;1.10;1.00;;;18.30;99.90;;;;;;4874716;29;20426;-80
2021/05/24 07:38:09;;;;;;;1.20;0.80;;;18.40;99.90;;;;;;4847659;29;20414;-78
2021/05/24 07:41:13;;;;;;;1.10;1.10;;;18.70;99.90;;;;;;4868211;29;20858;-79
2021/05/24 07:44:11;;;;;;;0.73;0.73;;;18.70;99.90;;;;;;4881019;29;20408;-78
2021/05/24 07:46:44;;;;;;;0.90;0.90;;;18.70;99.90;;;;;;4857921;29;20493;-79
2021/05/24 07:49:10;;;;;;;0.90;0.60;;;18.80;99.90;;;;;;4875570;29;20397;-79
2021/05/24 07:51:36;;;;;;;0.70;0.70;;;18.80;99.90;;;;;;4893673;29;20595;-79
2021/05/24 07:54:02;;;;;;;0.65;0.65;;;19.00;99.90;;;;;;4847142;29;20415;-79
2021/05/24 07:56:28;;;;;;;0.85;0.52;;;19.10;99.90;;;;;;4887464;29;20492;-80
2021/05/24 07:58:53;;;;;;;0.80;0.80;;;19.10;99.90;;;;;;4904858;29;20437;-79
2021/05/24 08:01:19;;;;;;;0.50;0.50;;;19.00;99.90;;;;;;4863957;29;20412;-80
2021/05/24 08:03:45;;;;;;;0.70;0.70;;;19.10;99.90;;;;;;4845012;29;20535;-79
2021/05/24 08:06:10;;;;;;;0.70;0.70;;;19.10;99.90;;;;;;4850250;29;20412;-79
2021/05/24 08:08:36;;;;;;;2.03;0.80;;;19.10;99.90;;;;;;4884514;29;20404;-79
2021/05/24 08:11:02;;;;;;;0.60;0.60;;;19.20;99.90;;;;;;4880162;29;20409;-78
2021/05/24 08:13:29;;;;;;;0.70;0.70;;;19.30;99.90;;;;;;4850260;29;20399;-77
2021/05/24 08:15:55;;;;;;;2.00;0.90;;;19.20;99.90;;;;;;4880046;29;21146;-78
2021/05/24 08:18:20;;;;;;;5.50;0.80;;;19.40;99.90;;;;;;4865981;29;20468;-79
2021/05/24 08:20:50;;;;;;;0.70;0.70;;;19.50;99.90;;;;;;4868541;29;20500;-80
2021/05/24 08:23:18;;;;;;;0.80;0.80;;;19.50;99.90;;;;;;4839429;29;20403;-79
2021/05/24 08:25:44;;;;;;;0.60;0.60;;;19.20;99.90;;;;;;4882297;29;20513;-79
2021/05/24 08:28:12;;;;;;;0.95;0.95;;;19.10;99.90;;;;;;4860530;29;20437;-80
2021/05/24 08:30:38;;;;;;;0.90;0.90;;;19.30;99.90;;;;;;4871531;29;20401;-79
2021/05/24 08:33:04;;;;;;;1.00;0.90;;;19.20;99.90;;;;;;4850468;29;20422;-77
2021/05/24 08:35:30;;;;;;;0.90;0.90;;;19.20;99.90;;;;;;4899637;29;20401;-78
2021/05/24 08:41:11;;;;;;;0.80;0.77;;;19.60;99.90;;;;;;5526806;23;20415;-80
2021/05/24 08:43:42;;;;;;;0.63;0.63;;;19.40;99.90;;;;;;4914361;29;20419;-80
2021/05/24 08:46:11;;;;;;;0.90;0.90;;;19.50;99.90;;;;;;4916338;29;20429;-81
2021/05/24 08:48:37;;;;;;;1.27;1.10;;;19.40;99.90;;;;;;4903849;29;20541;-79
2021/05/24 08:51:21;;;;;;;1.00;1.00;;;19.20;99.90;;;;;;4915933;29;20411;-79
2021/05/24 08:54:10;;;;;;;1.33;0.90;;;19.40;99.90;;;;;;4929095;29;20442;-79
2021/05/24 08:56:39;;;;;;;1.03;0.93;;;19.50;99.90;;;;;;4915206;29;20480;-78
2021/05/24 08:59:05;;;;;;;0.90;0.77;;;19.60;99.90;;;;;;4900147;29;20523;-79
2021/05/24 09:02:03;;;;;;;1.20;0.82;;;19.70;99.90;;;;;;4871045;29;20385;-80
2021/05/24 09:04:49;;;;;;;0.98;0.88;;;19.40;99.90;;;;;;4896218;29;20410;-79
2021/05/24 09:07:22;;;;;;;1.55;0.90;;;19.30;99.90;;;;;;4885762;29;20413;-80
2021/05/24 09:10:05;;;;;;;0.70;0.70;;;19.00;99.90;;;;;;4875580;29;20433;-82
2021/05/24 09:12:40;;;;;;;2.03;1.58;;;18.90;99.90;;;;;;4888749;29;20419;-81
2021/05/24 09:15:46;;;;;;;0.80;0.80;;;19.00;99.90;;;;;;4861096;29;20438;-81
2021/05/24 09:19:07;;;;;;;1.00;0.77;;;19.00;99.90;;;;;;4914839;29;20427;-79
2021/05/24 09:22:00;;;;;;;0.70;0.70;;;19.20;99.90;;;;;;4904414;29;20426;-79
2021/05/24 09:24:47;;;;;;;1.70;1.00;;;19.40;99.90;;;;;;4907297;29;20427;-78
2021/05/24 09:27:30;;;;;;;2.42;1.00;;;19.40;99.90;;;;;;4886073;29;20430;-79
2021/05/24 09:30:28;;;;;;;0.80;0.70;;;19.70;99.90;;;;;;4907510;29;20432;-81
2021/05/24 09:34:20;;;;;;;1.17;0.90;;;19.80;99.90;;;;;;4931758;29;20429;-79
2021/05/24 09:37:56;;;;;;;0.80;0.80;;;20.10;99.90;;;;;;4907620;29;20407;-78
2021/05/24 09:41:30;;;;;;;0.70;0.70;;;20.20;99.90;;;;;;4910021;29;20419;-79
2021/05/24 09:44:32;;;;;;;0.73;0.73;;;20.30;99.90;;;;;;4892074;29;20496;-78
2021/05/24 09:47:45;;;;;;;0.70;0.70;;;20.20;99.90;;;;;;4871347;29;20413;-81
2021/05/24 09:54:23;;;;;;;0.80;0.80;;;20.30;99.90;;;;;;4856203;29;20549;-80
2021/05/24 09:57:24;;;;;;;4.10;1.00;;;20.50;99.90;;;;;;4879868;29;20494;-79
2021/05/24 10:00:52;;;;;;;0.90;0.80;;;20.30;97.00;;;;;;4869726;29;20458;-80
2021/05/24 10:03:37;;;;;;;0.60;0.60;;;20.70;99.00;;;;;;4895565;29;20415;-79
2021/05/24 10:07:51;;;;;;;0.60;0.60;;;20.50;99.00;;;;;;4931706;29;20396;-80
2021/05/24 10:12:02;;;;;;;0.60;0.60;;;20.60;98.60;;;;;;4937755;29;20411;-80
2021/05/24 10:19:15;;;;;;;0.90;0.80;;;21.50;92.90;;;;;;4856502;29;20449;-80
2021/05/24 10:22:33;;;;;;;0.80;0.70;;;21.60;94.00;;;;;;4900015;29;20440;-80
2021/05/24 10:25:28;;;;;;;0.90;0.90;;;21.80;93.00;;;;;;4834486;29;20933;-79
2021/05/24 10:28:47;;;;;;;1.40;0.93;;;22.20;94.50;;;;;;4892315;29;20417;-80
2021/05/24 10:31:23;;;;;;;3.30;0.67;;;22.10;91.20;;;;;;4940137;29;20488;-79
2021/05/24 10:34:19;;;;;;;1.30;1.10;;;22.10;90.50;;;;;;4909502;29;20404;-80
2021/05/24 10:37:38;;;;;;;0.55;0.55;;;21.90;88.40;;;;;;4948669;29;20409;-82
2021/05/24 10:41:31;;;;;;;1.33;0.90;;;21.90;88.50;;;;;;4938342;29;20422;-80
2021/05/24 10:44:47;;;;;;;0.70;0.70;;;22.00;88.40;;;;;;4908345;29;20403;-80
2021/05/24 10:47:20;;;;;;;1.27;0.85;;;22.50;89.30;;;;;;4909469;29;20417;-79
2021/05/24 10:50:07;;;;;;;0.80;0.80;;;22.80;87.00;;;;;;4910781;29;20773;-79
2021/05/24 10:52:39;;;;;;;0.60;0.60;;;22.90;83.90;;;;;;4905858;29;20403;-79
2021/05/24 10:55:29;;;;;;;1.10;0.70;;;23.20;85.70;;;;;;4940979;29;20398;-81
2021/05/24 10:57:59;;;;;;;7.60;1.77;;;23.70;82.50;;;;;;4921299;29;20467;-80
2021/05/24 11:00:25;;;;;;;0.85;0.80;;;23.90;82.00;;;;;;4884235;29;20468;-80
2021/05/24 11:02:55;;;;;;;0.70;0.70;;;24.00;76.30;;;;;;4896308;29;20921;-81
2021/05/24 11:05:29;;;;;;;1.23;0.60;;;24.00;79.40;;;;;;4877284;29;21051;-79
2021/05/24 11:07:59;;;;;;;0.60;0.60;;;24.50;79.90;;;;;;4890582;29;20435;-80
2021/05/24 11:10:32;;;;;;;0.50;0.50;;;24.60;74.60;;;;;;4894894;29;21280;-81
2021/05/24 11:13:11;;;;;;;0.90;0.70;;;24.70;74.30;;;;;;4907424;29;20403;-80
2021/05/24 11:15:37;;;;;;;1.90;0.70;;;24.90;72.90;;;;;;4921443;29;20412;-81
2021/05/24 11:18:05;;;;;;;0.70;0.70;;;24.90;73.00;;;;;;4919859;29;20439;-81
2021/05/24 11:20:49;;;;;;;1.13;0.97;;;25.10;72.00;;;;;;4925453;29;20420;-81
2021/05/24 11:25:58;;;;;;;0.70;0.70;;;25.10;69.40;;;;;;4909236;29;20441;-80
2021/05/24 11:28:34;;;;;;;0.60;0.60;;;25.10;71.60;;;;;;4897321;29;20518;-79
2021/05/24 11:31:13;;;;;;;0.55;0.55;;;25.10;70.00;;;;;;4911480;29;20407;-80
2021/05/24 11:33:49;;;;;;;1.38;0.77;;;25.20;67.50;;;;;;4918120;29;21173;-80
2021/05/24 11:36:16;;;;;;;4.20;0.75;;;25.20;65.40;;;;;;4922998;29;20427;-80
2021/05/24 11:39:03;;;;;;;0.65;0.65;;;25.00;65.80;;;;;;4906511;29;20415;-80
2021/05/24 11:41:32;;;;;;;0.60;0.60;;;25.20;67.60;;;;;;4917736;29;20418;-80
2021/05/24 11:44:00;;;;;;;0.65;0.65;;;25.20;63.50;;;;;;4893739;29;20393;-80
2021/05/24 11:46:26;;;;;;;0.73;0.73;;;24.90;64.50;;;;;;4888432;29;20430;-79
2021/05/24 11:48:52;;;;;;;0.80;0.80;;;25.20;62.60;;;;;;4904501;29;20917;-79
2021/05/24 11:51:18;;;;;;;0.50;0.50;;;25.10;62.40;;;;;;4909277;29;20410;-79
2021/05/24 11:54:20;;;;;;;1.25;0.60;;;25.10;60.10;;;;;;4892928;29;20433;-78
2021/05/24 11:56:47;;;;;;;0.50;0.50;;;25.50;62.40;;;;;;4851024;29;20422;-80
2021/05/24 11:59:14;;;;;;;2.20;0.70;;;25.50;64.60;;;;;;4901897;29;20555;-80
2021/05/24 12:01:44;;;;;;;0.50;0.50;;;25.30;57.90;;;;;;4887229;29;20396;-79
2021/05/24 12:04:14;;;;;;;0.40;0.40;;;25.30;58.20;;;;;;4909588;29;20434;-79
2021/05/24 12:07:00;;;;;;;0.60;0.60;;;25.00;55.80;;;;;;4900336;29;20403;-80
2021/05/24 12:09:36;;;;;;;0.60;0.60;;;25.30;57.00;;;;;;4904708;29;20403;-78
2021/05/24 12:12:12;;;;;;;0.73;0.73;;;25.60;57.90;;;;;;4922861;29;20404;-79
2021/05/24 12:14:39;;;;;;;0.70;0.60;;;26.10;59.10;;;;;;4924255;29;20445;-79
2021/05/24 12:17:10;;;;;;;0.63;0.63;;;26.30;57.30;;;;;;4918959;29;20407;-80
2021/05/24 12:19:35;;;;;;;0.75;0.60;;;26.20;60.10;;;;;;4882179;29;20983;-78
2021/05/24 12:22:04;;;;;;;0.60;0.60;;;26.60;56.50;;;;;;4890540;29;20440;-80
2021/05/24 12:24:32;;;;;;;1.07;0.70;;;26.50;53.70;;;;;;4901604;29;20414;-79
2021/05/24 12:26:57;;;;;;;0.55;0.50;;;26.40;55.70;;;;;;4908784;29;20913;-78
2021/05/24 12:29:26;;;;;;;0.90;0.70;;;26.00;55.30;;;;;;4921650;29;20418;-80
2021/05/24 12:31:53;;;;;;;0.65;0.65;;;25.70;55.80;;;;;;4903721;29;20404;-80
2021/05/24 12:34:23;;;;;;;0.60;0.60;;;25.60;54.60;;;;;;4900958;29;20405;-80
2021/05/24 12:36:55;;;;;;;3.90;0.87;;;25.40;54.10;;;;;;4888682;29;20404;-79
2021/05/24 12:39:21;;;;;;;1.40;0.60;;;25.10;55.40;;;;;;4899839;29;20498;-80
2021/05/24 12:41:47;;;;;;;0.53;0.53;;;25.40;55.70;;;;;;4893268;29;20451;-78
2021/05/24 12:44:15;;;;;;;0.70;0.60;;;25.80;56.90;;;;;;4879540;29;20408;-79
2021/05/24 12:46:41;;;;;;;0.60;0.60;;;26.20;59.10;;;;;;4923152;29;20471;-79
2021/05/24 12:49:07;;;;;;;1.35;0.68;;;26.30;52.30;;;;;;4903449;29;20482;-80
2021/05/24 12:51:32;;;;;;;0.60;0.60;;;26.20;54.00;;;;;;4908704;29;20542;-79
2021/05/24 12:54:05;;;;;;;0.63;0.63;;;26.50;54.60;;;;;;4911820;29;20466;-81
2021/05/24 12:56:49;;;;;;;3.90;0.70;;;25.80;51.70;;;;;;4906039;29;20431;-79
2021/05/24 12:59:21;;;;;;;0.70;0.65;;;26.20;55.70;;;;;;4881674;29;20506;-79
2021/05/24 13:01:48;;;;;;;0.50;0.50;;;26.40;56.40;;;;;;4902289;29;20909;-79
2021/05/24 13:04:15;;;;;;;0.63;0.63;;;26.70;53.10;;;;;;4899192;29;20924;-80
2021/05/24 13:06:48;;;;;;;0.50;0.50;;;26.80;53.60;;;;;;4907388;29;20410;-80
2021/05/24 13:09:19;;;;;;;0.60;0.60;;;27.10;54.60;;;;;;4907308;29;20409;-80
2021/05/24 13:12:08;;;;;;;0.60;0.60;;;27.60;54.60;;;;;;4897516;29;20405;-81
2021/05/24 13:14:38;;;;;;;0.60;0.60;;;27.70;51.90;;;;;;4891046;29;20761;-80
2021/05/24 13:17:27;;;;;;;4.32;1.10;;;26.90;52.70;;;;;;4910356;29;20403;-78
2021/05/24 13:20:25;;;;;;;2.10;0.60;;;26.80;51.80;;;;;;4931926;29;20425;-79
2021/05/24 13:23:42;;;;;;;0.50;0.50;;;26.80;52.40;;;;;;4922653;29;20781;-79
2021/05/24 13:26:25;;;;;;;0.77;0.77;;;26.80;52.60;;;;;;4908566;29;20427;-80
2021/05/24 13:31:51;;;;;;;0.43;0.43;;;26.10;51.20;;;;;;4888950;29;20454;-80
2021/05/24 13:35:32;;;;;;;0.63;0.52;;;26.20;51.40;;;;;;4874737;29;20440;-79